createdAt,value
2022-08-04T00:02:07.684Z,1.70
2022-08-04T00:04:52.755Z,1.50
2022-08-04T00:08:00.736Z,1.48
2022-08-04T00:10:28.924Z,1.35
2022-08-04T00:12:57.856Z,1.67
2022-08-04T00:15:25.564Z,1.33
2022-08-04T00:18:07.516Z,1.75
2022-08-04T00:20:40.721Z,1.60
2022-08-04T00:23:08.604Z,1.60
2022-08-04T00:25:40.391Z,1.70
2022-08-04T00:28:06.993Z,1.40
2022-08-04T00:30:33.830Z,1.60
2022-08-04T00:33:00.478Z,1.40
2022-08-04T00:35:29.125Z,1.60
2022-08-04T00:37:55.885Z,1.70
2022-08-04T00:40:28.478Z,1.60
2022-08-04T00:43:28.106Z,1.60
2022-08-04T00:46:28.755Z,1.58
2022-08-04T00:49:24.034Z,1.45
2022-08-04T00:52:31.758Z,1.88
2022-08-04T00:55:26.259Z,1.50
2022-08-04T00:58:03.187Z,1.42
2022-08-04T01:00:40.765Z,1.50
2022-08-04T01:03:15.724Z,1.33
2022-08-04T01:06:13.289Z,1.48
2022-08-04T01:08:55.080Z,1.48
2022-08-04T01:11:57.052Z,2.22
2022-08-04T01:14:32.385Z,1.90
2022-08-04T01:17:12.999Z,1.30
2022-08-04T01:19:51.407Z,1.10
2022-08-04T01:22:29.577Z,1.40
2022-08-04T01:25:14.593Z,1.90
2022-08-04T01:28:05.824Z,1.45
2022-08-04T01:30:33.450Z,1.73
2022-08-04T01:33:08.622Z,1.38
2022-08-04T01:35:48.490Z,1.10
2022-08-04T01:38:33.574Z,1.20
2022-08-04T01:41:03.927Z,1.30
2022-08-04T01:43:32.324Z,1.23
2022-08-04T01:46:01.427Z,1.50
2022-08-04T01:48:29.646Z,1.35
2022-08-04T01:51:04.135Z,1.48
2022-08-04T01:53:33.666Z,1.63
2022-08-04T01:56:02.537Z,1.20
2022-08-04T01:58:30.449Z,1.65
2022-08-04T02:01:05.121Z,1.48
2022-08-04T02:04:20.777Z,1.70
2022-08-04T02:06:23.610Z,1.50
2022-08-04T02:08:54.536Z,1.55
2022-08-04T02:11:22.303Z,1.40
2022-08-04T02:14:03.815Z,1.58
2022-08-04T02:16:43.680Z,1.60
2022-08-04T02:19:32.798Z,1.38
2022-08-04T02:22:10.230Z,1.48
2022-08-04T02:24:45.725Z,1.50
2022-08-04T02:27:14.890Z,1.40
2022-08-04T02:30:07.072Z,1.30
2022-08-04T02:32:39.840Z,1.60
2022-08-04T02:35:07.415Z,1.30
2022-08-04T02:37:34.770Z,1.55
2022-08-04T02:40:06.407Z,1.55
2022-08-04T02:42:34.319Z,2.03
2022-08-04T02:45:01.338Z,1.50
2022-08-04T02:48:08.058Z,1.13
2022-08-04T02:50:28.434Z,1.40
2022-08-04T02:52:58.278Z,1.42
2022-08-04T02:55:27.078Z,1.85
2022-08-04T02:57:54.989Z,1.20
2022-08-04T03:00:22.248Z,1.25
2022-08-04T03:03:20.928Z,1.77
2022-08-04T03:06:11.505Z,1.30
2022-08-04T03:08:59.592Z,1.40
2022-08-04T03:12:03.137Z,1.17
2022-08-04T03:15:07.294Z,1.38
2022-08-04T03:17:52.351Z,1.25
2022-08-04T03:20:55.793Z,1.50
2022-08-04T03:23:46.877Z,1.20
2022-08-04T03:26:28.651Z,1.23
2022-08-04T03:29:13.546Z,1.20
2022-08-04T03:31:55.256Z,1.48
2022-08-04T03:35:02.587Z,1.45
2022-08-04T03:37:47.791Z,1.48
2022-08-04T03:40:46.245Z,1.63
2022-08-04T03:43:58.977Z,1.40
2022-08-04T03:46:52.172Z,1.33
2022-08-04T03:49:53.764Z,1.42
2022-08-04T03:52:45.488Z,1.60
2022-08-04T03:55:32.328Z,1.33
2022-08-04T03:58:36.720Z,1.40
2022-08-04T04:01:17.920Z,2.10
2022-08-04T04:04:21.674Z,1.50
2022-08-04T04:07:14.314Z,1.60
2022-08-04T04:10:08.119Z,1.27
2022-08-04T04:15:51.037Z,1.85
2022-08-04T04:18:37.407Z,1.50
2022-08-04T04:21:06.529Z,1.55
2022-08-04T04:23:57.554Z,1.83
2022-08-04T04:26:58.940Z,1.30
2022-08-04T04:29:34.303Z,1.35
2022-08-04T04:32:11.515Z,2.22
2022-08-04T04:34:51.440Z,1.60
2022-08-04T04:37:32.250Z,1.38
2022-08-04T04:40:04.692Z,1.67
2022-08-04T04:43:05.141Z,1.70
2022-08-04T04:45:42.812Z,1.30
2022-08-04T04:48:28.133Z,1.75
2022-08-04T04:51:16.231Z,1.92
2022-08-04T04:53:46.297Z,1.73
2022-08-04T04:56:22.833Z,1.80
2022-08-04T04:58:52.734Z,1.95
2022-08-04T05:01:40.450Z,2.05
2022-08-04T05:04:37.149Z,1.90
2022-08-04T05:07:20.253Z,1.60
2022-08-04T05:09:57.791Z,1.30
2022-08-04T05:14:31.324Z,1.75
2022-08-04T05:15:43.282Z,2.17
2022-08-04T05:18:14.572Z,2.33
2022-08-04T05:20:45.958Z,1.98
2022-08-04T05:23:22.971Z,1.88
2022-08-04T05:25:59.362Z,1.80
2022-08-04T05:28:36.611Z,2.03
2022-08-04T05:31:11.360Z,2.05
2022-08-04T05:33:51.960Z,2.00
2022-08-04T05:36:40.175Z,2.20
2022-08-04T05:39:13.101Z,2.00
2022-08-04T05:41:45.241Z,1.73
2022-08-04T05:44:14.134Z,3.17
2022-08-04T05:46:42.038Z,3.10
2022-08-04T05:49:09.645Z,2.90
2022-08-04T05:51:40.101Z,3.03
2022-08-04T05:54:08.001Z,2.50
2022-08-04T05:56:36.094Z,2.58
2022-08-04T05:59:03.647Z,2.40
2022-08-04T06:01:31.605Z,2.67
2022-08-04T06:04:04.736Z,2.80
2022-08-04T06:06:33.933Z,2.00
2022-08-04T06:09:00.433Z,2.17
2022-08-04T06:11:30.204Z,2.30
2022-08-04T06:14:07.504Z,3.10
2022-08-04T06:16:46.046Z,2.08
2022-08-04T06:20:00.686Z,2.00
2022-08-04T06:22:08.797Z,2.30
2022-08-04T06:24:37.627Z,2.40
2022-08-04T06:27:06.209Z,2.80
2022-08-04T06:29:37.053Z,3.10
2022-08-04T06:32:30.487Z,2.97
2022-08-04T06:35:01.946Z,3.10
2022-08-04T06:37:42.828Z,3.95
2022-08-04T06:40:30.019Z,4.00
2022-08-04T06:42:59.577Z,2.90
2022-08-04T06:45:27.602Z,3.47
2022-08-04T06:47:55.034Z,3.25
2022-08-04T06:51:27.744Z,2.95
2022-08-04T06:53:09.617Z,3.20
2022-08-04T06:55:37.079Z,3.72
2022-08-04T06:58:04.417Z,3.63
2022-08-04T07:00:32.342Z,3.40
2022-08-04T07:03:00.812Z,3.80
2022-08-04T07:05:27.656Z,3.38
2022-08-04T07:07:58.251Z,3.80
2022-08-04T07:12:59.955Z,3.75
2022-08-04T07:15:27.612Z,3.25
2022-08-04T07:17:56.864Z,3.47
2022-08-04T07:20:34.695Z,3.63
2022-08-04T07:23:05.957Z,3.22
2022-08-04T07:26:01.029Z,3.17
2022-08-04T07:28:23.814Z,3.30
2022-08-04T07:30:50.747Z,2.70
2022-08-04T07:33:18.286Z,2.63
2022-08-04T07:36:05.578Z,2.60
2022-08-04T07:38:48.129Z,3.97
2022-08-04T07:41:37.433Z,2.55
2022-08-04T07:44:04.894Z,2.47
2022-08-04T07:46:31.797Z,2.40
2022-08-04T07:49:00.890Z,2.25
2022-08-04T07:51:28.605Z,3.15
2022-08-04T07:53:56.799Z,2.95
2022-08-04T07:56:23.439Z,2.97
2022-08-04T07:58:50.476Z,2.80
2022-08-04T08:01:17.298Z,2.78
2022-08-04T08:03:44.100Z,2.78
2022-08-04T08:06:17.788Z,2.75
2022-08-04T08:08:58.182Z,2.63
2022-08-04T08:11:24.656Z,2.72
2022-08-04T08:14:11.845Z,3.22
2022-08-04T08:16:38.887Z,2.90
2022-08-04T08:19:06.221Z,2.92
2022-08-04T08:21:33.046Z,2.35
2022-08-04T08:23:59.923Z,2.78
2022-08-04T08:26:27.050Z,3.45
2022-08-04T08:28:55.152Z,3.30
2022-08-04T08:31:21.543Z,3.08
2022-08-04T08:34:08.395Z,4.15
2022-08-04T08:36:39.399Z,3.13
2022-08-04T08:39:19.558Z,3.22
2022-08-04T08:42:09.238Z,3.47
2022-08-04T08:44:57.643Z,3.85
2022-08-04T08:47:27.092Z,3.13
2022-08-04T08:50:04.815Z,2.95
2022-08-04T08:53:03.223Z,3.17
2022-08-04T08:56:01.937Z,3.05
2022-08-04T08:58:49.212Z,2.38
2022-08-04T09:01:49.277Z,2.55
2022-08-04T09:04:54.351Z,2.83
2022-08-04T09:07:42.162Z,2.70
2022-08-04T09:10:33.543Z,2.67
2022-08-04T09:13:08.350Z,3.05
2022-08-04T09:15:41.575Z,2.92
2022-08-04T09:18:19.961Z,2.92
2022-08-04T09:21:23.075Z,2.63
2022-08-04T09:24:35.654Z,2.83
2022-08-04T09:27:40.450Z,2.42
2022-08-04T09:30:10.026Z,2.75
2022-08-04T09:32:47.435Z,3.33
2022-08-04T09:35:47.631Z,2.83
2022-08-04T09:38:26.297Z,3.07
2022-08-04T09:41:20.868Z,2.80
2022-08-04T09:44:49.762Z,2.72
2022-08-04T09:47:40.988Z,2.25
2022-08-04T09:50:34.605Z,2.75
2022-08-04T09:53:19.374Z,2.53
2022-08-04T09:55:54.067Z,2.50
2022-08-04T09:58:58.332Z,2.55
2022-08-04T10:01:27.695Z,2.28
2022-08-04T10:04:01.586Z,2.40
2022-08-04T10:06:39.750Z,2.90
2022-08-04T10:09:31.075Z,2.05
2022-08-04T10:11:57.477Z,2.58
2022-08-04T10:14:33.615Z,2.17
2022-08-04T10:17:24.019Z,2.75
2022-08-04T10:20:10.772Z,2.90
2022-08-04T10:23:09.478Z,3.25
2022-08-04T10:26:03.015Z,3.42
2022-08-04T10:28:21.184Z,3.20
2022-08-04T10:30:54.334Z,3.28
2022-08-04T10:34:05.946Z,2.80
2022-08-04T10:36:44.476Z,2.58
2022-08-04T10:39:43.110Z,3.42
2022-08-04T10:42:30.686Z,2.60
2022-08-04T10:45:00.139Z,3.67
2022-08-04T10:47:35.125Z,3.40
2022-08-04T10:50:03.981Z,2.80
2022-08-04T10:52:42.478Z,2.90
2022-08-04T10:55:09.237Z,2.10
2022-08-04T10:57:45.580Z,2.50
2022-08-04T11:00:16.459Z,2.30
2022-08-04T11:03:03.133Z,1.70
2022-08-04T11:05:43.897Z,1.77
2022-08-04T11:08:31.049Z,2.22
2022-08-04T11:10:57.704Z,1.80
2022-08-04T11:13:29.794Z,1.67
2022-08-04T11:16:02.293Z,2.38
2022-08-04T11:18:40.054Z,1.40
2022-08-04T11:21:16.425Z,1.90
2022-08-04T11:23:47.924Z,2.00
2022-08-04T11:26:24.363Z,1.90
2022-08-04T11:29:12.067Z,1.60
2022-08-04T11:31:49.774Z,1.75
2022-08-04T11:34:20.971Z,2.22
2022-08-04T11:37:15.127Z,2.10
2022-08-04T11:40:03.894Z,2.65
2022-08-04T11:42:39.148Z,2.03
2022-08-04T11:45:17.439Z,1.85
2022-08-04T11:47:54.053Z,2.15
2022-08-04T11:50:35.176Z,1.83
2022-08-04T11:53:02.649Z,2.17
2022-08-04T11:55:31.646Z,1.80
2022-08-04T11:57:58.473Z,2.10
2022-08-04T12:00:29.525Z,3.45
2022-08-04T12:03:37.681Z,2.45
2022-08-04T12:06:09.774Z,2.80
2022-08-04T12:08:44.350Z,2.70
2022-08-04T12:11:27.333Z,2.40
2022-08-04T12:14:02.726Z,2.13
2022-08-04T12:16:53.222Z,3.38
2022-08-04T12:20:04.401Z,2.05
2022-08-04T12:22:41.430Z,2.50
2022-08-04T12:25:13.065Z,2.55
2022-08-04T12:27:39.395Z,2.60
2022-08-04T12:30:59.488Z,3.03
2022-08-04T12:33:06.478Z,2.63
2022-08-04T12:36:04.362Z,2.55
2022-08-04T12:38:32.123Z,2.50
2022-08-04T12:41:03.402Z,2.70
2022-08-04T12:43:39.185Z,2.55
2022-08-04T12:46:19.617Z,3.30
2022-08-04T12:48:47.281Z,2.72
2022-08-04T12:51:55.962Z,2.92
2022-08-04T12:54:02.210Z,2.72
2022-08-04T12:56:29.803Z,2.90
2022-08-04T12:59:12.530Z,2.97
2022-08-04T13:02:08.144Z,3.05
2022-08-04T13:04:29.671Z,3.03
2022-08-04T13:07:10.814Z,3.10
2022-08-04T13:09:38.028Z,3.15
2022-08-04T13:12:17.090Z,2.80
2022-08-04T13:14:47.713Z,2.45
2022-08-04T13:17:14.600Z,2.75
2022-08-04T13:19:47.219Z,2.63
2022-08-04T13:22:30.168Z,2.40
2022-08-04T13:26:40.328Z,2.60
2022-08-04T13:27:48.419Z,2.60
2022-08-04T13:30:23.003Z,2.50
2022-08-04T13:32:55.467Z,2.75
2022-08-04T13:35:25.849Z,2.55
2022-08-04T13:38:16.697Z,2.50
2022-08-04T13:40:44.638Z,2.65
2022-08-04T13:44:15.495Z,2.63
2022-08-04T13:46:28.119Z,2.95
2022-08-04T13:49:27.956Z,2.60
2022-08-04T13:52:04.758Z,2.50
2022-08-04T13:54:43.832Z,2.40
2022-08-04T13:57:23.171Z,2.58
2022-08-04T13:59:53.311Z,2.33
2022-08-04T14:02:26.136Z,2.73
2022-08-04T14:04:57.334Z,2.67
2022-08-04T14:07:25.916Z,2.22
2022-08-04T14:10:02.349Z,1.80
2022-08-04T14:12:38.338Z,2.22
2022-08-04T14:16:02.308Z,2.10
2022-08-04T14:18:34.537Z,2.08
2022-08-04T14:23:47.333Z,1.40
2022-08-04T14:26:33.667Z,1.75
2022-08-04T14:29:27.553Z,1.90
2022-08-04T14:32:01.938Z,2.25
2022-08-04T14:34:30.604Z,1.70
2022-08-04T14:37:17.163Z,2.10
2022-08-04T14:40:18.439Z,2.03
2022-08-04T14:42:55.556Z,1.75
2022-08-04T14:45:31.866Z,2.55
2022-08-04T14:47:58.491Z,2.40
2022-08-04T14:50:36.082Z,2.85
2022-08-04T14:53:08.081Z,2.65
2022-08-04T14:55:35.515Z,2.28
2022-08-04T14:58:36.816Z,2.60
2022-08-04T15:00:49.520Z,2.60
2022-08-04T15:03:18.801Z,2.40
2022-08-04T15:06:04.010Z,2.72
2022-08-04T15:08:32.364Z,3.00
2022-08-04T15:11:02.394Z,4.45
2022-08-04T15:13:32.079Z,2.42
2022-08-04T15:16:07.435Z,2.90
2022-08-04T15:18:36.175Z,2.60
2022-08-04T15:21:04.568Z,2.38
2022-08-04T15:23:38.847Z,6.22
2022-08-04T15:26:11.501Z,16.67
2022-08-04T15:28:41.063Z,2.30
2022-08-04T15:33:40.474Z,2.35
2022-08-04T15:36:34.240Z,2.30
2022-08-04T15:39:12.365Z,2.00
2022-08-04T15:42:12.958Z,2.20
2022-08-04T15:45:09.178Z,2.17
2022-08-04T15:47:35.667Z,2.20
2022-08-04T15:50:09.190Z,1.85
2022-08-04T15:53:10.788Z,1.90
2022-08-04T15:55:44.175Z,1.90
2022-08-04T15:58:17.220Z,1.98
2022-08-04T16:00:55.503Z,1.83
2022-08-04T16:03:58.366Z,1.65
2022-08-04T16:06:23.648Z,1.60
2022-08-04T16:09:01.211Z,1.80
2022-08-04T16:11:32.359Z,1.33
2022-08-04T16:13:59.291Z,1.38
2022-08-04T16:16:49.928Z,1.95
2022-08-04T16:19:35.240Z,1.52
2022-08-04T16:22:03.869Z,1.65
2022-08-04T16:24:37.522Z,1.58
2022-08-04T16:27:08.785Z,1.50
2022-08-04T16:29:35.335Z,1.50
2022-08-04T16:32:04.621Z,1.40
2022-08-04T16:34:54.040Z,1.20
2022-08-04T16:37:20.169Z,1.50
2022-08-04T16:39:50.635Z,1.30
2022-08-04T16:42:30.184Z,1.23
2022-08-04T16:45:13.198Z,1.17
2022-08-04T16:47:48.905Z,1.50
2022-08-04T16:50:18.931Z,1.30
2022-08-04T16:52:47.485Z,1.40
2022-08-04T16:55:22.518Z,1.20
2022-08-04T16:57:50.787Z,1.40
2022-08-04T17:00:27.337Z,1.00
2022-08-04T17:02:54.072Z,1.50
2022-08-04T17:05:37.992Z,1.60
2022-08-04T17:08:29.257Z,1.63
2022-08-04T17:10:54.725Z,1.50
2022-08-04T17:14:03.802Z,1.33
2022-08-04T17:16:19.253Z,1.45
2022-08-04T17:18:48.246Z,1.77
2022-08-04T17:21:19.891Z,1.30
2022-08-04T17:24:15.573Z,1.10
2022-08-04T17:26:51.629Z,1.55
2022-08-04T17:29:42.283Z,1.70
2022-08-04T17:32:20.668Z,1.40
2022-08-04T17:34:53.333Z,1.23
2022-08-04T17:37:41.263Z,1.67
2022-08-04T17:40:18.085Z,1.40
2022-08-04T17:42:49.580Z,1.08
2022-08-04T17:45:50.789Z,1.10
2022-08-04T17:48:09.144Z,1.65
2022-08-04T17:50:36.506Z,1.40
2022-08-04T17:53:11.577Z,2.38
2022-08-04T17:55:47.034Z,1.48
2022-08-04T17:58:22.903Z,1.05
2022-08-04T18:03:52.776Z,1.30
2022-08-04T18:06:21.865Z,1.10
2022-08-04T18:08:58.875Z,1.13
2022-08-04T18:11:52.035Z,1.30
2022-08-04T18:14:18.472Z,1.08
2022-08-04T18:16:52.640Z,0.80
2022-08-04T18:19:22.531Z,1.00
2022-08-04T18:22:00.517Z,0.95
2022-08-04T18:24:56.304Z,1.25
2022-08-04T18:27:24.418Z,1.20
2022-08-04T18:30:32.572Z,1.00
2022-08-04T18:33:04.207Z,1.20
2022-08-04T18:35:25.677Z,0.90
2022-08-04T18:38:23.394Z,1.08
2022-08-04T18:40:53.261Z,0.88
2022-08-04T18:43:28.253Z,1.30
2022-08-04T18:45:57.751Z,0.98
2022-08-04T18:48:36.939Z,1.08
2022-08-04T18:51:22.251Z,0.93
2022-08-04T18:53:58.604Z,0.90
2022-08-04T18:56:32.634Z,1.10
2022-08-04T18:59:01.686Z,0.98
2022-08-04T19:02:16.720Z,0.98
2022-08-04T19:04:33.908Z,1.08
2022-08-04T19:07:29.185Z,0.80
2022-08-04T19:09:54.209Z,1.10
2022-08-04T19:12:26.646Z,1.17
2022-08-04T19:15:07.905Z,0.88
2022-08-04T19:17:56.935Z,1.45
2022-08-04T19:20:25.937Z,1.48
2022-08-04T19:24:26.258Z,0.80
2022-08-04T19:26:02.938Z,1.27
2022-08-04T19:28:29.885Z,1.10
2022-08-04T19:30:58.807Z,1.20
2022-08-04T19:33:25.631Z,1.30
2022-08-04T19:36:11.994Z,1.20
2022-08-04T19:38:38.888Z,1.67
2022-08-04T19:41:14.215Z,1.10
2022-08-04T19:43:43.637Z,1.27
2022-08-04T19:46:10.711Z,1.35
2022-08-04T19:48:39.058Z,1.50
2022-08-04T19:51:05.550Z,1.20
2022-08-04T19:53:37.554Z,1.35
2022-08-04T19:56:09.483Z,1.20
2022-08-04T19:58:38.440Z,1.05
2022-08-04T20:01:04.980Z,1.17
2022-08-04T20:04:09.006Z,1.10
2022-08-04T20:06:37.600Z,1.23
2022-08-04T20:09:04.073Z,1.30
2022-08-04T20:11:50.532Z,1.20
2022-08-04T20:14:17.933Z,1.00
2022-08-04T20:16:46.282Z,1.00
2022-08-04T20:19:14.140Z,1.00
2022-08-04T20:21:55.163Z,1.15
2022-08-04T20:24:40.330Z,1.30
2022-08-04T20:27:15.076Z,1.17
2022-08-04T20:29:46.154Z,1.27
2022-08-04T20:32:21.964Z,1.67
2022-08-04T20:34:53.322Z,1.45
2022-08-04T20:37:22.997Z,1.10
2022-08-04T20:39:55.476Z,1.60
2022-08-04T20:42:27.797Z,1.05
2022-08-04T20:45:01.328Z,1.20
2022-08-04T20:47:31.142Z,1.20
2022-08-04T20:50:08.923Z,1.23
2022-08-04T20:52:37.093Z,1.10
2022-08-04T20:55:05.577Z,1.33
2022-08-04T20:57:47.707Z,1.10
2022-08-04T21:00:17.490Z,1.75
2022-08-04T21:02:44.448Z,1.30
2022-08-04T21:05:11.088Z,1.30
2022-08-04T21:07:41.759Z,1.30
2022-08-04T21:10:10.814Z,1.20
2022-08-04T21:12:37.481Z,1.38
2022-08-04T21:15:15.728Z,1.27
2022-08-04T21:20:31.381Z,1.45
2022-08-04T21:23:01.644Z,1.42
2022-08-04T21:25:29.419Z,1.63
2022-08-04T21:27:58.987Z,1.67
2022-08-04T21:30:30.516Z,1.60
2022-08-04T21:32:56.914Z,1.70
2022-08-04T21:35:30.126Z,2.05
2022-08-04T21:38:04.023Z,1.93
2022-08-04T21:40:50.519Z,2.00
2022-08-04T21:43:20.489Z,1.90
2022-08-04T21:45:50.310Z,2.20
2022-08-04T21:48:17.056Z,1.80
2022-08-04T21:50:43.935Z,1.92
2022-08-04T21:53:16.798Z,1.90
2022-08-04T21:56:05.638Z,2.50
2022-08-04T21:58:33.174Z,1.92
2022-08-04T22:00:59.637Z,1.80
2022-08-04T22:03:52.315Z,1.98
2022-08-04T22:06:17.315Z,1.90
2022-08-04T22:08:49.111Z,2.05
2022-08-04T22:11:21.862Z,1.90
2022-08-04T22:16:40.807Z,2.47
2022-08-04T22:19:08.813Z,2.83
2022-08-04T22:21:39.075Z,2.08
2022-08-04T22:24:13.794Z,2.08
2022-08-04T22:26:40.798Z,2.30
2022-08-04T22:29:07.279Z,2.08
2022-08-04T22:31:56.308Z,2.15
2022-08-04T22:34:24.822Z,2.30
2022-08-04T22:36:51.342Z,1.98
2022-08-04T22:39:23.601Z,2.20
2022-08-04T22:42:04.030Z,2.83
2022-08-04T22:44:33.144Z,2.17
2022-08-04T22:47:00.605Z,2.25
2022-08-04T22:49:31.695Z,2.65
2022-08-04T22:51:58.534Z,2.67
2022-08-04T22:54:28.409Z,2.50
2022-08-04T22:56:56.739Z,3.40
2022-08-04T22:59:23.787Z,2.80
2022-08-04T23:01:59.755Z,3.08
2022-08-04T23:04:28.158Z,2.78
2022-08-04T23:06:54.855Z,2.53
2022-08-04T23:09:22.008Z,2.65
2022-08-04T23:12:08.606Z,2.75
2022-08-04T23:14:45.115Z,3.13
2022-08-04T23:17:13.536Z,2.72
2022-08-04T23:19:41.139Z,3.00
2022-08-04T23:22:07.815Z,2.95
2022-08-04T23:24:34.437Z,2.60
2022-08-04T23:27:00.921Z,2.53
2022-08-04T23:29:27.472Z,3.28
2022-08-04T23:32:00.280Z,2.95
2022-08-04T23:34:29.133Z,3.10
2022-08-04T23:36:56.166Z,3.20
2022-08-04T23:39:25.848Z,2.95
2022-08-04T23:42:15.087Z,3.50
2022-08-04T23:44:48.179Z,3.08
2022-08-04T23:48:14.502Z,3.20
2022-08-04T23:50:00.921Z,3.40
2022-08-04T23:52:29.557Z,3.03
2022-08-04T23:54:58.822Z,3.20
2022-08-04T23:58:02.625Z,3.08
